Time;durP1;ratioP1;P1;durP2;ratioP2;P2;SDS_P1;SDS_P2;PMS_P1;PMS_P2;Temp;Humidity;BMP_temperature;BMP_pressure;BME280_temperature;BME280_humidity;BME280_pressure;Samples;Min_cycle;Max_cycle;Signal;HPM_P1;HPM_P2
2020/12/22 00:01:43;;;;;;;1.75;1.48;;;10.90;99.90;;;;;;5035766;28;20234;-77
2020/12/22 00:04:10;;;;;;;2.15;1.27;;;10.90;99.90;;;;;;5033894;28;20342;-74
2020/12/22 00:06:36;;;;;;;1.85;1.50;;;10.90;99.90;;;;;;5033312;28;20196;-74
2020/12/22 00:09:03;;;;;;;2.03;1.60;;;11.00;99.90;;;;;;5033360;28;20307;-74
2020/12/22 00:11:29;;;;;;;2.00;1.30;;;10.90;99.90;;;;;;5033377;28;20207;-74
2020/12/22 00:13:55;;;;;;;1.90;1.20;;;11.00;99.90;;;;;;5033855;28;20211;-75
2020/12/22 00:16:23;;;;;;;1.60;1.42;;;10.90;99.90;;;;;;5033748;28;20291;-75
2020/12/22 00:18:49;;;;;;;1.63;1.30;;;10.90;99.90;;;;;;5033534;28;20651;-75
2020/12/22 00:21:19;;;;;;;1.50;1.40;;;11.00;99.90;;;;;;5033503;28;20286;-75
2020/12/22 00:23:46;;;;;;;1.40;1.30;;;11.10;99.90;;;;;;5033102;28;20200;-75
2020/12/22 00:26:16;;;;;;;1.95;1.10;;;11.20;99.90;;;;;;5033535;28;20197;-77
2020/12/22 00:28:43;;;;;;;1.67;1.58;;;11.20;99.90;;;;;;5034863;28;20632;-77
2020/12/22 00:31:09;;;;;;;2.47;1.48;;;11.20;99.90;;;;;;5034765;28;20318;-77
2020/12/22 00:33:37;;;;;;;1.70;1.05;;;11.30;99.90;;;;;;5036017;28;20196;-80
2020/12/22 00:36:07;;;;;;;1.77;1.10;;;11.30;99.90;;;;;;5036726;28;20536;-81
2020/12/22 00:38:33;;;;;;;2.00;1.27;;;11.30;99.90;;;;;;5038078;28;20535;-80
2020/12/22 00:41:00;;;;;;;1.17;1.08;;;11.30;99.90;;;;;;5037543;28;20606;-81
2020/12/22 00:43:26;;;;;;;1.25;1.05;;;11.40;99.90;;;;;;5039366;28;20651;-81
2020/12/22 00:45:52;;;;;;;1.27;0.90;;;11.40;99.90;;;;;;5035898;28;20577;-78
2020/12/22 00:48:19;;;;;;;1.50;1.20;;;11.40;99.90;;;;;;5033392;28;20204;-80
2020/12/22 00:50:46;;;;;;;1.45;1.15;;;11.40;99.90;;;;;;5034228;28;20220;-82
2020/12/22 00:53:12;;;;;;;1.35;1.00;;;11.40;99.90;;;;;;5033284;28;20554;-81
2020/12/22 00:55:39;;;;;;;1.35;0.90;;;11.40;99.90;;;;;;5033222;28;20232;-81
2020/12/22 00:58:05;;;;;;;1.02;0.90;;;11.50;99.90;;;;;;5037265;28;20196;-81
2020/12/22 01:00:31;;;;;;;1.20;1.08;;;11.50;99.90;;;;;;5038195;28;20211;-82
2020/12/22 01:02:58;;;;;;;1.30;1.00;;;11.50;99.90;;;;;;5035568;28;20283;-83
2020/12/22 01:05:24;;;;;;;2.53;1.40;;;11.40;99.90;;;;;;5035386;28;20223;-81
2020/12/22 01:07:51;;;;;;;1.23;0.70;;;11.50;99.90;;;;;;5032570;28;20626;-76
2020/12/22 01:10:17;;;;;;;1.48;1.38;;;11.50;99.90;;;;;;5032266;28;20219;-76
2020/12/22 01:12:44;;;;;;;0.93;0.93;;;11.60;99.90;;;;;;5032865;28;20291;-77
2020/12/22 01:15:10;;;;;;;1.13;0.70;;;11.70;99.90;;;;;;5032534;28;20299;-77
2020/12/22 01:17:37;;;;;;;1.67;1.02;;;11.70;99.90;;;;;;5032573;28;20200;-76
2020/12/22 01:20:04;;;;;;;0.77;0.70;;;11.80;99.90;;;;;;5032316;28;20192;-76
2020/12/22 01:22:30;;;;;;;1.42;0.80;;;11.80;99.90;;;;;;5032491;28;20286;-80
2020/12/22 01:24:57;;;;;;;1.15;0.80;;;11.80;99.90;;;;;;5032617;28;20303;-77
2020/12/22 01:27:23;;;;;;;1.00;0.95;;;11.90;99.90;;;;;;5033097;28;20204;-77
2020/12/22 01:29:50;;;;;;;1.00;0.75;;;11.90;99.90;;;;;;5031475;28;20219;-76
2020/12/22 01:32:16;;;;;;;1.48;0.60;;;11.90;99.90;;;;;;5032712;28;20283;-77
2020/12/22 01:34:42;;;;;;;0.93;0.80;;;12.00;99.90;;;;;;5031343;28;20212;-77
2020/12/22 01:37:12;;;;;;;0.80;0.80;;;12.00;99.90;;;;;;5032428;28;20203;-77
2020/12/22 01:39:38;;;;;;;1.02;1.00;;;12.00;99.90;;;;;;5030059;28;20196;-78
2020/12/22 01:42:08;;;;;;;1.25;0.80;;;11.90;99.90;;;;;;5032853;28;20619;-76
2020/12/22 01:44:34;;;;;;;0.60;0.60;;;11.90;99.90;;;;;;5031962;28;20269;-77
2020/12/22 01:47:01;;;;;;;0.95;0.60;;;11.90;99.90;;;;;;5032105;28;20227;-76
2020/12/22 01:49:28;;;;;;;1.17;1.00;;;11.90;99.90;;;;;;5032286;28;20323;-77
2020/12/22 01:51:56;;;;;;;0.63;0.63;;;11.90;99.90;;;;;;5032111;28;20354;-77
2020/12/22 01:54:23;;;;;;;0.82;0.60;;;11.80;99.90;;;;;;5032545;28;20733;-78
2020/12/22 01:56:49;;;;;;;0.73;0.73;;;11.90;99.90;;;;;;5031667;28;20202;-77
2020/12/22 01:59:17;;;;;;;1.25;1.00;;;11.90;99.90;;;;;;5032572;28;20188;-77
2020/12/22 02:01:44;;;;;;;0.60;0.60;;;11.90;99.90;;;;;;5032494;28;20279;-77
2020/12/22 02:04:12;;;;;;;0.52;0.52;;;12.00;99.90;;;;;;5032126;28;20629;-77
2020/12/22 02:06:38;;;;;;;0.63;0.50;;;12.00;99.90;;;;;;5032254;28;20291;-76
2020/12/22 02:09:06;;;;;;;0.50;0.50;;;12.00;99.90;;;;;;5031754;28;20306;-77
2020/12/22 02:11:34;;;;;;;0.50;0.50;;;12.10;99.90;;;;;;5031631;28;20204;-76
2020/12/22 02:14:02;;;;;;;1.27;0.68;;;12.10;99.90;;;;;;5031641;28;20210;-78
2020/12/22 02:16:30;;;;;;;0.50;0.40;;;12.10;99.90;;;;;;5031592;28;20200;-77
2020/12/22 02:18:56;;;;;;;0.38;0.38;;;12.10;99.90;;;;;;5032566;28;20211;-77
2020/12/22 02:21:24;;;;;;;0.50;0.50;;;12.10;99.90;;;;;;5032677;28;20201;-77
2020/12/22 02:23:52;;;;;;;0.40;0.40;;;12.10;99.90;;;;;;5035619;28;20196;-76
2020/12/22 02:26:19;;;;;;;0.63;0.40;;;12.10;99.90;;;;;;5035519;28;20200;-77
2020/12/22 02:28:45;;;;;;;0.55;0.50;;;12.20;99.90;;;;;;5036129;28;20562;-77
2020/12/22 02:31:12;;;;;;;0.40;0.30;;;12.20;99.90;;;;;;5035274;28;20664;-74
2020/12/22 02:33:38;;;;;;;0.30;0.20;;;12.20;99.90;;;;;;5038607;28;20706;-74
2020/12/22 02:36:08;;;;;;;0.50;0.50;;;12.20;99.90;;;;;;5038523;28;20319;-73
2020/12/22 02:38:35;;;;;;;0.40;0.30;;;12.20;99.90;;;;;;5036790;28;20682;-74
2020/12/22 02:41:01;;;;;;;0.82;0.20;;;12.20;99.90;;;;;;5037356;28;20538;-74
2020/12/22 02:43:28;;;;;;;0.30;0.30;;;12.20;99.90;;;;;;5037086;28;20228;-73
2020/12/22 02:45:54;;;;;;;0.30;0.20;;;12.30;99.90;;;;;;5037065;28;20598;-73
2020/12/22 02:48:20;;;;;;;0.40;0.40;;;12.30;99.90;;;;;;5037060;28;20210;-73
2020/12/22 02:50:47;;;;;;;0.65;0.30;;;12.40;99.90;;;;;;5037220;28;20228;-73
2020/12/22 02:53:13;;;;;;;0.40;0.20;;;12.40;99.90;;;;;;5037317;28;20223;-73
2020/12/22 02:55:41;;;;;;;0.30;0.30;;;12.30;99.90;;;;;;5036793;28;20228;-73
2020/12/22 02:58:07;;;;;;;0.30;0.20;;;12.30;99.90;;;;;;5037049;28;20206;-73
2020/12/22 03:00:34;;;;;;;0.30;0.30;;;12.30;99.90;;;;;;5036789;28;20230;-73
2020/12/22 03:03:00;;;;;;;0.40;0.20;;;12.30;99.90;;;;;;5036655;28;20295;-73
2020/12/22 03:05:26;;;;;;;0.40;0.20;;;12.30;99.90;;;;;;5036260;28;20228;-73
2020/12/22 03:07:53;;;;;;;0.30;0.30;;;12.30;99.90;;;;;;5036465;28;20637;-73
2020/12/22 03:10:19;;;;;;;0.50;0.30;;;12.20;99.90;;;;;;5036472;28;20228;-73
2020/12/22 03:12:47;;;;;;;0.40;0.30;;;12.20;99.90;;;;;;5036823;28;20215;-74
2020/12/22 03:15:14;;;;;;;0.40;0.30;;;12.20;99.90;;;;;;5035748;28;20686;-73
2020/12/22 03:17:40;;;;;;;0.30;0.30;;;12.30;99.90;;;;;;5036334;28;20208;-73
2020/12/22 03:20:08;;;;;;;0.30;0.30;;;12.30;99.90;;;;;;5036379;28;20197;-73
2020/12/22 03:22:35;;;;;;;0.52;0.40;;;12.40;99.90;;;;;;5036351;28;20658;-73
2020/12/22 03:25:03;;;;;;;0.40;0.28;;;12.50;99.90;;;;;;5036336;28;20223;-73
2020/12/22 03:27:29;;;;;;;0.43;0.40;;;12.50;99.90;;;;;;5036402;28;20246;-73
2020/12/22 03:29:56;;;;;;;0.30;0.28;;;12.60;99.90;;;;;;5036325;28;20228;-74
2020/12/22 03:32:23;;;;;;;1.73;0.90;;;12.60;99.90;;;;;;5036052;28;20208;-73
2020/12/22 03:34:49;;;;;;;1.17;0.70;;;12.70;99.90;;;;;;5036205;28;20234;-72
2020/12/22 03:37:20;;;;;;;0.40;0.40;;;12.60;99.90;;;;;;5036382;28;20204;-73
2020/12/22 03:39:48;;;;;;;0.50;0.30;;;12.60;99.90;;;;;;5036705;28;20208;-72
2020/12/22 03:42:14;;;;;;;2.25;1.17;;;12.70;99.90;;;;;;5035885;28;20204;-73
2020/12/22 03:44:41;;;;;;;0.65;0.60;;;12.70;99.90;;;;;;5036082;28;20246;-72
2020/12/22 03:47:08;;;;;;;0.40;0.40;;;12.70;99.90;;;;;;5036109;28;20226;-73
2020/12/22 03:49:34;;;;;;;0.50;0.30;;;12.70;99.90;;;;;;5036171;28;20277;-73
2020/12/22 03:52:01;;;;;;;0.30;0.20;;;12.70;99.90;;;;;;5036021;28;20294;-73
2020/12/22 03:54:27;;;;;;;0.47;0.40;;;12.70;99.90;;;;;;5036478;28;20354;-74
2020/12/22 03:56:54;;;;;;;0.43;0.22;;;12.70;99.90;;;;;;5035561;28;20211;-73
2020/12/22 03:59:21;;;;;;;0.30;0.20;;;12.70;99.90;;;;;;5035889;28;20200;-73
2020/12/22 04:01:50;;;;;;;0.50;0.30;;;12.70;99.90;;;;;;5035795;28;20210;-73
2020/12/22 04:04:19;;;;;;;0.45;0.40;;;12.70;99.90;;;;;;5035654;28;20228;-73
2020/12/22 04:06:45;;;;;;;3.15;2.00;;;12.80;99.90;;;;;;5035602;28;20199;-74
2020/12/22 04:09:13;;;;;;;0.93;0.50;;;12.70;99.90;;;;;;5034890;28;20212;-73
2020/12/22 04:11:40;;;;;;;0.50;0.40;;;12.70;99.90;;;;;;5035310;28;20211;-73
2020/12/22 04:14:07;;;;;;;0.30;0.30;;;12.80;99.90;;;;;;5035446;28;20228;-74
2020/12/22 04:16:34;;;;;;;0.40;0.30;;;12.70;99.90;;;;;;5035352;28;20265;-73
2020/12/22 04:19:00;;;;;;;0.50;0.30;;;12.70;99.90;;;;;;5034983;28;20269;-73
2020/12/22 04:21:27;;;;;;;0.30;0.28;;;12.80;99.90;;;;;;5035410;28;20204;-73
2020/12/22 04:23:54;;;;;;;0.30;0.30;;;12.80;99.90;;;;;;5034937;28;20210;-73
2020/12/22 04:26:21;;;;;;;0.40;0.30;;;12.80;99.90;;;;;;5034730;28;20250;-73
2020/12/22 04:28:47;;;;;;;0.30;0.20;;;12.80;99.90;;;;;;5034806;28;20295;-73
2020/12/22 04:31:14;;;;;;;0.38;0.20;;;12.80;99.90;;;;;;5034402;28;20310;-73
2020/12/22 04:33:40;;;;;;;0.30;0.20;;;12.80;99.90;;;;;;5034992;28;20208;-73
2020/12/22 04:36:06;;;;;;;0.30;0.20;;;12.90;99.90;;;;;;5034561;28;20224;-73
2020/12/22 04:38:34;;;;;;;0.38;0.30;;;12.90;99.90;;;;;;5034619;28;20204;-73
2020/12/22 04:41:01;;;;;;;0.40;0.20;;;12.90;99.90;;;;;;5034808;28;20670;-73
2020/12/22 04:43:28;;;;;;;0.50;0.38;;;12.90;99.90;;;;;;5034842;28;20253;-73
2020/12/22 04:46:00;;;;;;;0.65;0.30;;;12.90;99.90;;;;;;5033941;28;20224;-73
2020/12/22 04:48:29;;;;;;;1.50;0.90;;;12.90;99.90;;;;;;5034922;28;20536;-73
2020/12/22 04:50:55;;;;;;;0.40;0.40;;;13.00;99.90;;;;;;5034393;28;20320;-73
2020/12/22 04:53:22;;;;;;;0.30;0.20;;;12.90;99.90;;;;;;5034978;28;20210;-73
2020/12/22 04:55:49;;;;;;;0.90;0.35;;;12.90;99.90;;;;;;5034408;28;20226;-73
2020/12/22 04:58:16;;;;;;;0.70;0.38;;;12.90;99.90;;;;;;5034658;28;20290;-73
2020/12/22 05:00:42;;;;;;;0.30;0.30;;;13.00;99.90;;;;;;5034677;28;20291;-73
2020/12/22 05:03:10;;;;;;;0.30;0.20;;;12.90;99.90;;;;;;5034467;28;20605;-73
2020/12/22 05:05:36;;;;;;;0.40;0.20;;;12.90;99.90;;;;;;5033762;28;20224;-73
2020/12/22 05:08:03;;;;;;;0.30;0.20;;;12.90;99.90;;;;;;5034222;28;20300;-73
2020/12/22 05:10:29;;;;;;;0.30;0.20;;;13.00;99.90;;;;;;5034234;28;20282;-73
2020/12/22 05:12:56;;;;;;;4.72;0.50;;;12.90;99.90;;;;;;5034468;28;20749;-73
2020/12/22 05:15:27;;;;;;;0.40;0.30;;;13.00;99.90;;;;;;5033857;28;20231;-73
2020/12/22 05:17:53;;;;;;;0.90;0.70;;;13.00;99.90;;;;;;5034363;28;20212;-73
2020/12/22 05:20:21;;;;;;;0.40;0.40;;;13.00;99.90;;;;;;5033821;28;20277;-73
2020/12/22 05:22:48;;;;;;;0.40;0.30;;;12.90;99.90;;;;;;5034158;28;20199;-73
2020/12/22 05:25:16;;;;;;;0.40;0.30;;;12.90;99.90;;;;;;5033940;28;20231;-73
2020/12/22 05:27:44;;;;;;;0.40;0.30;;;12.90;99.90;;;;;;5034424;28;20207;-73
2020/12/22 05:30:15;;;;;;;0.30;0.20;;;13.00;99.90;;;;;;5034279;28;20219;-73
2020/12/22 05:32:42;;;;;;;0.32;0.32;;;13.10;99.90;;;;;;5034064;28;20354;-74
2020/12/22 05:35:12;;;;;;;0.55;0.40;;;13.10;99.90;;;;;;5033693;28;20230;-73
2020/12/22 05:37:40;;;;;;;0.40;0.30;;;13.10;99.90;;;;;;5034110;28;20622;-73
2020/12/22 05:40:08;;;;;;;0.40;0.30;;;13.10;99.90;;;;;;5033985;28;20672;-73
2020/12/22 05:42:35;;;;;;;0.30;0.30;;;13.10;99.90;;;;;;5034110;28;20200;-73
2020/12/22 05:45:04;;;;;;;1.42;0.80;;;13.10;99.90;;;;;;5033215;28;20710;-73
2020/12/22 05:47:32;;;;;;;0.85;0.50;;;13.20;99.90;;;;;;5034136;28;20207;-73
2020/12/22 05:50:00;;;;;;;0.50;0.30;;;13.20;99.90;;;;;;5034300;28;20224;-73
2020/12/22 05:52:28;;;;;;;0.82;0.38;;;13.30;99.90;;;;;;5034270;28;20210;-73
2020/12/22 05:54:56;;;;;;;0.40;0.20;;;13.20;99.90;;;;;;5033773;28;20775;-74
2020/12/22 05:57:24;;;;;;;0.50;0.28;;;13.20;99.90;;;;;;5038161;28;20670;-74
2020/12/22 05:59:51;;;;;;;0.38;0.35;;;13.30;99.90;;;;;;5038241;28;20536;-74
2020/12/22 06:02:25;;;;;;;1.25;0.30;;;13.20;99.90;;;;;;5037942;28;20204;-73
2020/12/22 06:04:55;;;;;;;0.30;0.20;;;13.20;99.90;;;;;;5037182;28;20234;-74
2020/12/22 06:07:21;;;;;;;0.50;0.50;;;13.30;99.90;;;;;;5038013;28;20214;-73
2020/12/22 06:09:48;;;;;;;1.08;0.40;;;13.30;99.90;;;;;;5038131;28;20277;-73
2020/12/22 06:12:14;;;;;;;0.50;0.50;;;13.30;99.90;;;;;;5037688;28;20207;-74
2020/12/22 06:14:44;;;;;;;0.30;0.20;;;13.30;99.90;;;;;;5038173;28;20314;-73
2020/12/22 06:17:11;;;;;;;0.50;0.40;;;13.30;99.90;;;;;;5037713;28;20254;-74
2020/12/22 06:19:39;;;;;;;0.40;0.28;;;13.40;99.90;;;;;;5037923;28;20254;-74
2020/12/22 06:22:09;;;;;;;0.40;0.40;;;13.40;99.90;;;;;;5037698;28;20207;-73
2020/12/22 06:24:35;;;;;;;0.40;0.30;;;13.40;99.90;;;;;;5037455;28;20234;-73
2020/12/22 06:27:03;;;;;;;0.30;0.20;;;13.40;99.90;;;;;;5037543;28;20222;-74
2020/12/22 06:29:29;;;;;;;0.30;0.30;;;13.40;99.90;;;;;;5037517;28;20203;-74
2020/12/22 06:32:07;;;;;;;0.40;0.30;;;13.40;99.90;;;;;;5037339;28;20214;-74
2020/12/22 06:34:33;;;;;;;0.40;0.22;;;13.50;99.90;;;;;;5037157;28;20377;-74
2020/12/22 06:37:00;;;;;;;0.40;0.30;;;13.50;99.90;;;;;;5037321;28;20214;-74
2020/12/22 06:39:44;;;;;;;1.13;0.50;;;13.50;99.90;;;;;;5037047;28;20201;-74
2020/12/22 06:42:19;;;;;;;1.30;0.40;;;13.50;99.90;;;;;;5037121;28;20208;-73
2020/12/22 06:44:45;;;;;;;0.43;0.40;;;13.50;99.90;;;;;;5037055;28;20316;-73
2020/12/22 06:47:12;;;;;;;0.70;0.60;;;13.50;99.90;;;;;;5037290;28;20292;-73
2020/12/22 06:49:50;;;;;;;1.05;0.95;;;13.60;99.90;;;;;;5036660;28;20570;-73
2020/12/22 06:52:35;;;;;;;0.60;0.30;;;13.60;99.90;;;;;;5036806;28;20214;-74
2020/12/22 06:55:05;;;;;;;0.30;0.30;;;13.60;99.90;;;;;;5036230;28;20310;-73
2020/12/22 06:57:52;;;;;;;0.50;0.30;;;13.60;99.90;;;;;;5036558;28;20200;-73
2020/12/22 07:00:37;;;;;;;0.50;0.30;;;13.60;99.90;;;;;;5031744;28;20223;-74
2020/12/22 07:03:14;;;;;;;0.50;0.40;;;13.60;99.90;;;;;;5036844;28;20574;-73
2020/12/22 07:05:42;;;;;;;0.55;0.25;;;13.60;99.90;;;;;;5036398;28;20228;-73
2020/12/22 07:08:09;;;;;;;0.40;0.30;;;13.60;99.90;;;;;;5036413;28;20241;-74
2020/12/22 07:10:42;;;;;;;0.60;0.40;;;13.60;99.90;;;;;;5036214;28;20228;-74
2020/12/22 07:13:11;;;;;;;0.75;0.38;;;13.60;99.90;;;;;;5036326;28;20188;-74
2020/12/22 07:15:43;;;;;;;0.45;0.40;;;13.70;99.90;;;;;;5036179;28;20220;-73
2020/12/22 07:18:11;;;;;;;0.45;0.30;;;13.70;99.90;;;;;;5036843;28;20207;-74
2020/12/22 07:20:40;;;;;;;0.40;0.20;;;13.60;99.90;;;;;;5036766;28;20781;-74
2020/12/22 07:23:07;;;;;;;0.40;0.30;;;13.70;99.90;;;;;;5035929;28;20258;-74
2020/12/22 07:25:33;;;;;;;0.55;0.30;;;13.70;99.90;;;;;;5035876;28;20228;-74
2020/12/22 07:28:02;;;;;;;0.52;0.40;;;13.70;99.90;;;;;;5036140;28;20207;-74
2020/12/22 07:30:29;;;;;;;0.50;0.50;;;13.90;99.90;;;;;;5035833;28;20231;-74
2020/12/22 07:32:58;;;;;;;0.30;0.30;;;13.90;99.90;;;;;;5036315;28;20201;-73
2020/12/22 07:35:25;;;;;;;0.40;0.40;;;13.90;99.90;;;;;;5035587;28;20262;-74
2020/12/22 07:37:51;;;;;;;0.40;0.30;;;13.90;99.90;;;;;;5035982;28;20524;-73
2020/12/22 07:40:17;;;;;;;0.30;0.30;;;13.90;99.90;;;;;;5036126;28;20212;-74
2020/12/22 07:42:44;;;;;;;0.40;0.30;;;14.00;99.90;;;;;;5036002;28;20295;-74
2020/12/22 07:45:11;;;;;;;0.40;0.30;;;14.00;99.90;;;;;;5035581;28;20683;-73
2020/12/22 07:47:37;;;;;;;0.40;0.30;;;14.00;99.90;;;;;;5036118;28;20685;-73
2020/12/22 07:50:14;;;;;;;0.52;0.45;;;14.00;99.90;;;;;;5035646;28;20224;-74
2020/12/22 07:52:40;;;;;;;0.30;0.20;;;14.00;99.90;;;;;;5035628;28;20211;-74
2020/12/22 07:55:08;;;;;;;0.40;0.30;;;14.00;99.90;;;;;;5035459;28;20710;-73
2020/12/22 07:57:37;;;;;;;0.75;0.30;;;14.10;99.90;;;;;;5035935;28;20210;-74
2020/12/22 08:00:06;;;;;;;3.97;1.40;;;14.10;99.90;;;;;;5035817;28;20200;-74
2020/12/22 08:02:33;;;;;;;0.40;0.30;;;14.10;99.90;;;;;;5035287;28;20298;-74
2020/12/22 08:05:09;;;;;;;0.40;0.30;;;14.10;99.90;;;;;;5035413;28;20332;-74
2020/12/22 08:07:35;;;;;;;0.40;0.32;;;14.10;99.90;;;;;;5035367;28;20232;-74
2020/12/22 08:10:09;;;;;;;0.30;0.30;;;14.10;99.90;;;;;;5035669;28;20229;-74
2020/12/22 08:12:36;;;;;;;0.50;0.30;;;14.10;99.90;;;;;;5035087;28;20204;-74
2020/12/22 08:15:03;;;;;;;0.47;0.22;;;14.20;99.90;;;;;;5035124;28;20275;-74
2020/12/22 08:17:30;;;;;;;0.30;0.25;;;14.20;99.90;;;;;;5035328;28;20204;-74
2020/12/22 08:20:01;;;;;;;0.50;0.40;;;14.20;99.90;;;;;;5034622;28;20660;-74
2020/12/22 08:22:29;;;;;;;0.40;0.40;;;14.20;99.90;;;;;;5035635;28;20223;-74
2020/12/22 08:24:57;;;;;;;0.80;0.40;;;14.20;99.90;;;;;;5034862;28;20286;-74
2020/12/22 08:27:23;;;;;;;0.30;0.30;;;14.20;99.90;;;;;;5034921;28;20204;-74
2020/12/22 08:29:49;;;;;;;0.40;0.25;;;14.20;99.90;;;;;;5034745;28;20702;-74
2020/12/22 08:32:23;;;;;;;0.30;0.30;;;14.20;99.90;;;;;;5035125;28;20300;-73
2020/12/22 08:34:52;;;;;;;0.82;0.30;;;14.20;99.90;;;;;;5035001;28;20231;-74
2020/12/22 08:37:24;;;;;;;0.30;0.30;;;14.20;99.90;;;;;;5035343;28;20253;-73
2020/12/22 08:39:51;;;;;;;0.40;0.30;;;14.20;99.90;;;;;;5035178;28;20651;-74
2020/12/22 08:42:17;;;;;;;0.47;0.32;;;14.30;99.90;;;;;;5034524;28;20651;-73
2020/12/22 08:44:49;;;;;;;0.40;0.40;;;14.30;99.90;;;;;;5034685;28;20311;-73
2020/12/22 08:47:16;;;;;;;0.40;0.40;;;14.30;99.90;;;;;;5032772;28;20200;-73
2020/12/22 08:49:43;;;;;;;0.40;0.35;;;14.20;99.90;;;;;;5032753;28;20196;-73
2020/12/22 08:52:10;;;;;;;0.50;0.30;;;14.20;99.90;;;;;;5032903;28;20193;-74
2020/12/22 08:54:37;;;;;;;0.30;0.22;;;14.20;99.90;;;;;;5032644;28;20227;-73
2020/12/22 08:57:11;;;;;;;0.50;0.30;;;14.30;99.90;;;;;;5032929;28;20670;-73
2020/12/22 08:59:37;;;;;;;0.30;0.30;;;14.30;99.90;;;;;;5030985;28;20634;-74
2020/12/22 09:02:04;;;;;;;0.45;0.38;;;14.40;99.90;;;;;;5032746;28;20627;-74
2020/12/22 09:04:32;;;;;;;0.60;0.40;;;14.40;99.90;;;;;;5032210;28;20713;-75
2020/12/22 09:06:59;;;;;;;0.40;0.30;;;14.50;99.90;;;;;;5032657;28;20587;-74
2020/12/22 09:09:28;;;;;;;0.50;0.40;;;14.50;99.90;;;;;;5032664;28;21370;-75
2020/12/22 09:12:04;;;;;;;0.30;0.28;;;14.50;99.90;;;;;;5035488;28;20200;-75
2020/12/22 09:14:41;;;;;;;0.57;0.20;;;14.50;99.90;;;;;;5035953;28;20223;-76
2020/12/22 09:17:08;;;;;;;0.70;0.70;;;14.40;99.90;;;;;;5035363;28;20295;-77
2020/12/22 09:19:45;;;;;;;0.30;0.30;;;14.40;99.90;;;;;;5034530;28;20258;-74
2020/12/22 09:22:12;;;;;;;0.43;0.20;;;14.40;99.90;;;;;;5034283;28;20206;-74
2020/12/22 09:24:39;;;;;;;0.85;0.73;;;14.40;99.90;;;;;;5033641;28;20229;-74
2020/12/22 09:27:08;;;;;;;0.88;0.40;;;14.40;99.90;;;;;;5033913;28;20202;-74
2020/12/22 09:29:36;;;;;;;0.50;0.20;;;14.40;99.90;;;;;;5033896;28;20291;-74
2020/12/22 09:32:03;;;;;;;0.30;0.30;;;14.40;99.90;;;;;;5033742;28;20580;-74
2020/12/22 09:34:32;;;;;;;0.50;0.40;;;14.40;99.90;;;;;;5034130;28;20231;-73
2020/12/22 09:37:00;;;;;;;0.40;0.20;;;14.40;99.90;;;;;;5034034;28;20210;-74
2020/12/22 09:39:28;;;;;;;0.43;0.30;;;14.30;99.90;;;;;;5033987;28;20204;-74
2020/12/22 09:41:55;;;;;;;0.40;0.30;;;14.30;99.90;;;;;;5034579;28;20207;-74
2020/12/22 09:44:22;;;;;;;0.30;0.30;;;14.20;99.90;;;;;;5034356;28;20318;-74
2020/12/22 09:46:50;;;;;;;0.40;0.30;;;14.20;99.90;;;;;;5033698;28;20226;-74
2020/12/22 09:49:16;;;;;;;0.30;0.22;;;14.20;99.90;;;;;;5033706;28;20206;-74
2020/12/22 09:51:43;;;;;;;0.70;0.38;;;14.20;99.90;;;;;;5033751;28;20229;-74
2020/12/22 09:54:09;;;;;;;0.30;0.30;;;14.20;99.90;;;;;;5033781;28;20205;-75
2020/12/22 09:56:35;;;;;;;0.45;0.40;;;14.20;99.90;;;;;;5033573;28;20205;-74
2020/12/22 09:59:02;;;;;;;0.70;0.40;;;14.20;99.90;;;;;;5034224;28;20300;-75
2020/12/22 10:01:30;;;;;;;1.15;0.30;;;14.30;99.90;;;;;;5033755;28;20212;-74
2020/12/22 10:03:56;;;;;;;2.75;1.23;;;14.30;99.90;;;;;;5033611;28;20291;-74
2020/12/22 10:06:24;;;;;;;0.30;0.30;;;14.30;99.90;;;;;;5033423;28;20204;-75
2020/12/22 10:08:51;;;;;;;0.30;0.30;;;14.30;99.90;;;;;;5033785;28;20303;-74
2020/12/22 10:11:18;;;;;;;0.43;0.40;;;14.30;99.90;;;;;;5033274;28;20228;-74
2020/12/22 10:13:45;;;;;;;0.55;0.40;;;14.40;99.90;;;;;;5033356;28;20201;-74
2020/12/22 10:16:13;;;;;;;0.52;0.52;;;14.40;99.90;;;;;;5033344;28;20233;-74
2020/12/22 10:18:40;;;;;;;0.40;0.40;;;14.40;99.90;;;;;;5033517;28;20212;-74
2020/12/22 10:21:09;;;;;;;0.50;0.35;;;14.50;99.90;;;;;;5033720;28;20596;-74
2020/12/22 10:23:36;;;;;;;0.55;0.55;;;14.50;99.90;;;;;;5033399;28;20685;-74
2020/12/22 10:26:04;;;;;;;0.50;0.40;;;14.60;99.90;;;;;;5033313;28;20316;-74
2020/12/22 10:28:30;;;;;;;0.85;0.43;;;14.60;99.90;;;;;;5033407;28;20216;-74
2020/12/22 10:30:57;;;;;;;0.55;0.40;;;14.70;99.90;;;;;;5033340;28;20263;-74
2020/12/22 10:33:24;;;;;;;0.30;0.30;;;14.70;99.90;;;;;;5033776;28;20618;-74
2020/12/22 10:35:51;;;;;;;0.60;0.60;;;14.80;99.90;;;;;;5033836;28;20237;-74
2020/12/22 10:38:17;;;;;;;0.40;0.40;;;14.80;99.90;;;;;;5033562;28;20549;-74
2020/12/22 10:40:45;;;;;;;0.45;0.40;;;14.70;99.90;;;;;;5033102;28;20207;-74
2020/12/22 10:43:12;;;;;;;3.50;0.40;;;14.80;99.90;;;;;;5034975;28;20301;-74
2020/12/22 10:45:39;;;;;;;1.55;0.95;;;14.80;99.90;;;;;;5036862;28;20228;-74
2020/12/22 10:48:06;;;;;;;0.82;0.40;;;14.80;99.90;;;;;;5036969;28;20200;-74
2020/12/22 10:50:32;;;;;;;0.60;0.32;;;14.80;99.90;;;;;;5037059;28;20304;-74
2020/12/22 10:52:59;;;;;;;1.15;0.40;;;14.80;99.90;;;;;;5037077;28;20206;-74
2020/12/22 10:55:26;;;;;;;0.57;0.52;;;14.90;99.90;;;;;;5036532;28;20312;-73
2020/12/22 10:57:52;;;;;;;0.30;0.30;;;14.90;99.90;;;;;;5036461;28;20214;-74
2020/12/22 11:00:18;;;;;;;0.40;0.40;;;14.90;99.90;;;;;;5036786;28;20297;-74
2020/12/22 11:02:47;;;;;;;0.68;0.40;;;14.90;99.90;;;;;;5036677;28;20234;-74
2020/12/22 11:05:14;;;;;;;0.52;0.40;;;14.80;99.90;;;;;;5036259;28;20240;-74
2020/12/22 11:07:44;;;;;;;0.40;0.40;;;14.90;99.90;;;;;;5036721;28;20214;-75
2020/12/22 11:10:11;;;;;;;0.50;0.40;;;14.80;99.90;;;;;;5036048;28;20320;-75
2020/12/22 11:12:38;;;;;;;0.52;0.40;;;14.90;99.90;;;;;;5036029;28;20217;-75
2020/12/22 11:15:04;;;;;;;0.43;0.35;;;14.90;99.90;;;;;;5036064;28;20226;-74
2020/12/22 11:17:30;;;;;;;0.43;0.43;;;14.90;99.90;;;;;;5036300;28;20201;-72
2020/12/22 11:19:56;;;;;;;0.65;0.40;;;14.90;99.90;;;;;;5036484;28;20295;-74
2020/12/22 11:22:23;;;;;;;0.50;0.47;;;14.90;99.90;;;;;;5036428;28;20209;-75
2020/12/22 11:24:49;;;;;;;0.47;0.47;;;14.90;99.90;;;;;;5035829;28;20234;-75
2020/12/22 11:27:16;;;;;;;0.40;0.40;;;14.90;99.90;;;;;;5036238;28;20209;-74
2020/12/22 11:29:43;;;;;;;0.40;0.30;;;14.90;99.90;;;;;;5036100;28;20365;-74
2020/12/22 11:32:10;;;;;;;0.60;0.50;;;14.90;99.90;;;;;;5036149;28;20300;-74
2020/12/22 11:34:36;;;;;;;0.40;0.40;;;14.90;99.90;;;;;;5035967;28;20248;-74
2020/12/22 11:37:03;;;;;;;0.30;0.30;;;15.00;99.90;;;;;;5036234;28;20214;-75
2020/12/22 11:39:30;;;;;;;0.30;0.30;;;15.00;99.90;;;;;;5035988;28;20594;-74
2020/12/22 11:42:00;;;;;;;0.40;0.30;;;15.00;99.90;;;;;;5035727;28;20209;-74
2020/12/22 11:44:28;;;;;;;0.30;0.30;;;15.00;99.90;;;;;;5035831;28;20227;-74
2020/12/22 11:46:54;;;;;;;0.47;0.38;;;14.90;99.90;;;;;;5035801;28;20217;-73
2020/12/22 11:49:20;;;;;;;1.05;0.47;;;14.90;99.90;;;;;;5035925;28;20210;-74
2020/12/22 11:51:47;;;;;;;0.32;0.28;;;14.80;99.90;;;;;;5035477;28;20317;-74
2020/12/22 11:54:13;;;;;;;1.13;0.40;;;14.80;99.90;;;;;;5035354;28;20633;-74
2020/12/22 11:56:39;;;;;;;0.40;0.40;;;14.80;99.90;;;;;;5035023;28;20296;-74
2020/12/22 11:59:06;;;;;;;0.90;0.40;;;14.80;99.90;;;;;;5035313;28;20304;-74
2020/12/22 12:01:33;;;;;;;1.05;0.50;;;14.80;99.90;;;;;;5035913;28;20227;-74
2020/12/22 12:03:59;;;;;;;0.85;0.52;;;14.80;99.90;;;;;;5035799;28;20232;-74
2020/12/22 12:06:26;;;;;;;0.70;0.50;;;14.80;99.90;;;;;;5034877;28;20680;-74
2020/12/22 12:08:52;;;;;;;0.50;0.40;;;14.90;99.90;;;;;;5035057;28;20300;-75
2020/12/22 12:11:18;;;;;;;2.38;1.40;;;15.00;99.90;;;;;;5034964;28;20226;-75
2020/12/22 12:13:44;;;;;;;1.05;0.57;;;15.00;99.90;;;;;;5035449;28;20580;-75
2020/12/22 12:16:11;;;;;;;0.50;0.43;;;15.10;99.90;;;;;;5034883;28;20226;-74
2020/12/22 12:18:38;;;;;;;0.63;0.63;;;15.20;99.90;;;;;;5034788;28;20699;-74
2020/12/22 12:21:07;;;;;;;0.52;0.50;;;15.20;99.90;;;;;;5034675;28;20215;-74
2020/12/22 12:23:33;;;;;;;0.55;0.50;;;15.20;99.90;;;;;;5034800;28;20215;-73
2020/12/22 12:25:59;;;;;;;0.68;0.50;;;15.30;99.90;;;;;;5034829;28;20314;-73
2020/12/22 12:28:26;;;;;;;0.50;0.40;;;15.40;99.90;;;;;;5034584;28;20207;-74
2020/12/22 12:30:52;;;;;;;0.60;0.50;;;15.40;99.90;;;;;;5034658;28;20230;-74
2020/12/22 12:33:19;;;;;;;0.70;0.50;;;15.40;99.90;;;;;;5034326;28;20740;-74
2020/12/22 12:35:46;;;;;;;0.77;0.50;;;15.40;99.90;;;;;;5034487;28;20260;-74
2020/12/22 12:38:12;;;;;;;0.32;0.32;;;15.40;99.90;;;;;;5034745;28;20292;-74
2020/12/22 12:40:38;;;;;;;1.00;0.40;;;15.50;99.90;;;;;;5034662;28;20252;-74
2020/12/22 12:43:05;;;;;;;0.40;0.40;;;15.40;99.90;;;;;;5034743;28;20749;-74
2020/12/22 12:45:32;;;;;;;0.40;0.30;;;15.40;99.90;;;;;;5034023;28;20229;-75
2020/12/22 12:47:59;;;;;;;0.30;0.30;;;15.40;99.90;;;;;;5034043;28;20202;-74
2020/12/22 12:50:25;;;;;;;0.40;0.30;;;15.40;99.90;;;;;;5034039;28;20222;-74